sensor_id;sensor_type;location;lat;lon;timestamp;pressure;altitude;pressure_sealevel;temperature;humidity
50652;BME280;61429;52.086;5.240;2022-07-05T00:00:43;102043.0;;;17.56;64.58
50652;BME280;61429;52.086;5.240;2022-07-05T00:02:30;102040.0;;;17.55;64.47
50652;BME280;61429;52.086;5.240;2022-07-05T00:04:17;102044.0;;;17.46;64.86
50652;BME280;61429;52.086;5.240;2022-07-05T00:07:52;102041.0;;;17.57;64.47
50652;BME280;61429;52.086;5.240;2022-07-05T00:09:39;102047.0;;;17.38;64.97
50652;BME280;61429;52.086;5.240;2022-07-05T00:11:25;102050.0;;;17.45;64.74
50652;BME280;61429;52.086;5.240;2022-07-05T00:13:13;102048.0;;;17.45;64.8
50652;BME280;61429;52.086;5.240;2022-07-05T00:15:00;102046.0;;;17.37;65.16
50652;BME280;61429;52.086;5.240;2022-07-05T00:16:47;102044.0;;;17.41;65.02
50652;BME280;61429;52.086;5.240;2022-07-05T00:20:21;102043.0;;;17.32;65.35
50652;BME280;61429;52.086;5.240;2022-07-05T00:22:08;102044.0;;;17.34;65.42
50652;BME280;61429;52.086;5.240;2022-07-05T00:23:55;102046.0;;;17.34;65.33
50652;BME280;61429;52.086;5.240;2022-07-05T00:25:42;102043.0;;;17.34;65.47
50652;BME280;61429;52.086;5.240;2022-07-05T00:27:28;102046.0;;;17.32;65.47
50652;BME280;61429;52.086;5.240;2022-07-05T00:29:14;102044.0;;;17.28;65.66
50652;BME280;61429;52.086;5.240;2022-07-05T00:32:47;102045.0;;;17.21;65.74
50652;BME280;61429;52.086;5.240;2022-07-05T00:34:34;102044.0;;;17.25;65.84
50652;BME280;61429;52.086;5.240;2022-07-05T00:36:20;102041.0;;;17.2;65.6
50652;BME280;61429;52.086;5.240;2022-07-05T00:38:07;102037.0;;;17.16;65.39
50652;BME280;61429;52.086;5.240;2022-07-05T00:39:54;102035.0;;;17.06;65.61
50652;BME280;61429;52.086;5.240;2022-07-05T00:43:27;102034.0;;;17.11;65.45
50652;BME280;61429;52.086;5.240;2022-07-05T00:45:15;102033.0;;;17.04;65.72
50652;BME280;61429;52.086;5.240;2022-07-05T00:47:03;102034.0;;;17.05;65.91
50652;BME280;61429;52.086;5.240;2022-07-05T00:48:51;102038.0;;;16.9;66.05
50652;BME280;61429;52.086;5.240;2022-07-05T00:50:38;102040.0;;;16.87;65.94
50652;BME280;61429;52.086;5.240;2022-07-05T00:52:29;102038.0;;;16.86;65.72
50652;BME280;61429;52.086;5.240;2022-07-05T00:56:04;102039.0;;;16.78;65.89
50652;BME280;61429;52.086;5.240;2022-07-05T00:57:51;102038.0;;;16.82;65.6
50652;BME280;61429;52.086;5.240;2022-07-05T00:59:38;102034.0;;;16.84;65.47
50652;BME280;61429;52.086;5.240;2022-07-05T01:01:25;102037.0;;;16.82;65.48
50652;BME280;61429;52.086;5.240;2022-07-05T01:03:13;102038.0;;;16.95;65.91
50652;BME280;61429;52.086;5.240;2022-07-05T01:05:00;102034.0;;;17.05;64.85
50652;BME280;61429;52.086;5.240;2022-07-05T01:08:38;102040.0;;;16.95;64.27
50652;BME280;61429;52.086;5.240;2022-07-05T01:10:27;102037.0;;;16.87;64.98
50652;BME280;61429;52.086;5.240;2022-07-05T01:12:14;102033.0;;;16.84;64.83
50652;BME280;61429;52.086;5.240;2022-07-05T01:14:02;102030.0;;;16.81;65.1
50652;BME280;61429;52.086;5.240;2022-07-05T01:15:49;102033.0;;;16.82;65.3
50652;BME280;61429;52.086;5.240;2022-07-05T01:17:37;102037.0;;;16.73;65.47
50652;BME280;61429;52.086;5.240;2022-07-05T01:21:12;102035.0;;;16.77;65.59
50652;BME280;61429;52.086;5.240;2022-07-05T01:23:01;102037.0;;;16.77;65.97
50652;BME280;61429;52.086;5.240;2022-07-05T01:24:49;102031.0;;;16.75;65.91
50652;BME280;61429;52.086;5.240;2022-07-05T01:26:36;102031.0;;;16.72;66.28
50652;BME280;61429;52.086;5.240;2022-07-05T01:28:24;102032.0;;;16.77;65.94
50652;BME280;61429;52.086;5.240;2022-07-05T01:30:11;102034.0;;;16.72;65.86
50652;BME280;61429;52.086;5.240;2022-07-05T01:33:44;102032.0;;;16.61;66.08
50652;BME280;61429;52.086;5.240;2022-07-05T01:35:31;102033.0;;;16.64;66.44
50652;BME280;61429;52.086;5.240;2022-07-05T01:37:18;102030.0;;;16.63;66.52
50652;BME280;61429;52.086;5.240;2022-07-05T01:39:06;102027.0;;;16.68;66.52
50652;BME280;61429;52.086;5.240;2022-07-05T01:40:53;102028.0;;;16.8;65.91
50652;BME280;61429;52.086;5.240;2022-07-05T01:42:39;102028.0;;;16.73;66.22
50652;BME280;61429;52.086;5.240;2022-07-05T01:46:15;102039.0;;;16.62;66.33
50652;BME280;61429;52.086;5.240;2022-07-05T01:48:06;102041.0;;;16.63;66.31
50652;BME280;61429;52.086;5.240;2022-07-05T01:49:54;102043.0;;;16.59;66.3
50652;BME280;61429;52.086;5.240;2022-07-05T01:51:49;102042.0;;;16.53;66.7
50652;BME280;61429;52.086;5.240;2022-07-05T01:53:39;102045.0;;;16.5;66.85
50652;BME280;61429;52.086;5.240;2022-07-05T01:55:27;102043.0;;;16.62;66.63
50652;BME280;61429;52.086;5.240;2022-07-05T01:57:13;102048.0;;;16.73;66.73
50652;BME280;61429;52.086;5.240;2022-07-05T02:00:49;102042.0;;;16.78;66.58
50652;BME280;61429;52.086;5.240;2022-07-05T02:02:41;102043.0;;;16.66;66.72
50652;BME280;61429;52.086;5.240;2022-07-05T02:04:28;102043.0;;;16.68;66.94
50652;BME280;61429;52.086;5.240;2022-07-05T02:06:15;102041.0;;;16.62;67.13
50652;BME280;61429;52.086;5.240;2022-07-05T02:08:01;102040.0;;;16.66;67.11
50652;BME280;61429;52.086;5.240;2022-07-05T02:09:47;102041.0;;;16.63;67.37
50652;BME280;61429;52.086;5.240;2022-07-05T02:13:21;102045.0;;;16.61;67.47
50652;BME280;61429;52.086;5.240;2022-07-05T02:15:08;102047.0;;;16.57;67.94
50652;BME280;61429;52.086;5.240;2022-07-05T02:16:55;102048.0;;;16.68;67.69
50652;BME280;61429;52.086;5.240;2022-07-05T02:18:41;102041.0;;;16.78;67.23
50652;BME280;61429;52.086;5.240;2022-07-05T02:20:27;102044.0;;;16.77;67.33
50652;BME280;61429;52.086;5.240;2022-07-05T02:22:14;102042.0;;;16.72;66.19
50652;BME280;61429;52.086;5.240;2022-07-05T02:25:46;102037.0;;;16.84;65.41
50652;BME280;61429;52.086;5.240;2022-07-05T02:27:32;102036.0;;;16.81;65.08
50652;BME280;61429;52.086;5.240;2022-07-05T02:29:19;102030.0;;;16.72;64.74
50652;BME280;61429;52.086;5.240;2022-07-05T02:31:05;102032.0;;;16.84;64.37
50652;BME280;61429;52.086;5.240;2022-07-05T02:32:51;102032.0;;;16.75;64.3
50652;BME280;61429;52.086;5.240;2022-07-05T02:36:25;102036.0;;;16.62;65.09
50652;BME280;61429;52.086;5.240;2022-07-05T02:38:12;102038.0;;;16.57;65.75
50652;BME280;61429;52.086;5.240;2022-07-05T02:39:58;102038.0;;;16.45;66.28
50652;BME280;61429;52.086;5.240;2022-07-05T02:41:44;102039.0;;;16.45;66.52
50652;BME280;61429;52.086;5.240;2022-07-05T02:43:31;102039.0;;;16.4;66.62
50652;BME280;61429;52.086;5.240;2022-07-05T02:45:17;102040.0;;;16.38;67.09
50652;BME280;61429;52.086;5.240;2022-07-05T02:48:51;102038.0;;;16.4;67.19
50652;BME280;61429;52.086;5.240;2022-07-05T02:50:38;102043.0;;;16.37;67.35
50652;BME280;61429;52.086;5.240;2022-07-05T02:52:24;102043.0;;;16.36;67.49
50652;BME280;61429;52.086;5.240;2022-07-05T02:54:11;102046.0;;;16.34;66.16
50652;BME280;61429;52.086;5.240;2022-07-05T02:55:58;102049.0;;;16.36;66.14
50652;BME280;61429;52.086;5.240;2022-07-05T02:57:45;102052.0;;;16.25;66.5
50652;BME280;61429;52.086;5.240;2022-07-05T03:01:18;102051.0;;;16.29;66.89
50652;BME280;61429;52.086;5.240;2022-07-05T03:03:05;102055.0;;;16.27;67.22
50652;BME280;61429;52.086;5.240;2022-07-05T03:04:52;102058.0;;;16.18;67.59
50652;BME280;61429;52.086;5.240;2022-07-05T03:06:39;102058.0;;;16.16;67.33
50652;BME280;61429;52.086;5.240;2022-07-05T03:11:58;102057.0;;;16.12;68.05
50652;BME280;61429;52.086;5.240;2022-07-05T03:13:44;102057.0;;;16.12;68.02
50652;BME280;61429;52.086;5.240;2022-07-05T03:15:30;102052.0;;;16.12;68.3
50652;BME280;61429;52.086;5.240;2022-07-05T03:17:18;102052.0;;;16.15;68.33
50652;BME280;61429;52.086;5.240;2022-07-05T03:19:04;102055.0;;;16.16;68.58
50652;BME280;61429;52.086;5.240;2022-07-05T03:20:51;102053.0;;;16.22;68.33
50652;BME280;61429;52.086;5.240;2022-07-05T03:24:24;102057.0;;;16.22;67.64
50652;BME280;61429;52.086;5.240;2022-07-05T03:26:12;102056.0;;;16.18;67.35
50652;BME280;61429;52.086;5.240;2022-07-05T03:27:58;102060.0;;;16.23;67.53
50652;BME280;61429;52.086;5.240;2022-07-05T03:29:44;102063.0;;;16.16;68.08
50652;BME280;61429;52.086;5.240;2022-07-05T03:31:31;102062.0;;;16.11;67.69
50652;BME280;61429;52.086;5.240;2022-07-05T03:35:04;102059.0;;;16.25;67.22
50652;BME280;61429;52.086;5.240;2022-07-05T03:36:52;102065.0;;;16.29;67.08
50652;BME280;61429;52.086;5.240;2022-07-05T03:38:38;102066.0;;;16.25;67.38
50652;BME280;61429;52.086;5.240;2022-07-05T03:40:24;102062.0;;;16.2;67.74
50652;BME280;61429;52.086;5.240;2022-07-05T03:42:10;102067.0;;;16.27;66.86
50652;BME280;61429;52.086;5.240;2022-07-05T03:43:56;102065.0;;;16.31;66.66
50652;BME280;61429;52.086;5.240;2022-07-05T03:47:30;102069.0;;;16.16;67.52
50652;BME280;61429;52.086;5.240;2022-07-05T03:49:17;102066.0;;;16.14;67.94
50652;BME280;61429;52.086;5.240;2022-07-05T03:51:04;102064.0;;;16.16;68.24
50652;BME280;61429;52.086;5.240;2022-07-05T03:52:50;102065.0;;;16.22;68.0
50652;BME280;61429;52.086;5.240;2022-07-05T03:54:37;102065.0;;;16.27;67.59
50652;BME280;61429;52.086;5.240;2022-07-05T03:56:23;102070.0;;;16.41;66.6
50652;BME280;61429;52.086;5.240;2022-07-05T03:59:57;102068.0;;;16.43;66.66
50652;BME280;61429;52.086;5.240;2022-07-05T04:01:43;102071.0;;;16.4;67.08
50652;BME280;61429;52.086;5.240;2022-07-05T04:03:30;102072.0;;;16.46;66.52
50652;BME280;61429;52.086;5.240;2022-07-05T04:05:18;102072.0;;;16.52;66.55
50652;BME280;61429;52.086;5.240;2022-07-05T04:07:04;102070.0;;;16.56;65.97
50652;BME280;61429;52.086;5.240;2022-07-05T04:10:37;102070.0;;;16.65;65.8
50652;BME280;61429;52.086;5.240;2022-07-05T04:12:23;102073.0;;;16.7;65.09
50652;BME280;61429;52.086;5.240;2022-07-05T04:14:09;102075.0;;;16.73;64.83
50652;BME280;61429;52.086;5.240;2022-07-05T04:15:57;102078.0;;;16.82;64.75
50652;BME280;61429;52.086;5.240;2022-07-05T04:17:47;102080.0;;;16.62;65.52
50652;BME280;61429;52.086;5.240;2022-07-05T04:19:34;102078.0;;;16.59;65.45
50652;BME280;61429;52.086;5.240;2022-07-05T04:23:08;102080.0;;;16.5;66.52
50652;BME280;61429;52.086;5.240;2022-07-05T04:25:27;102080.0;;;16.54;66.19
50652;BME280;61429;52.086;5.240;2022-07-05T04:27:14;102082.0;;;16.7;65.62
50652;BME280;61429;52.086;5.240;2022-07-05T04:29:00;102082.0;;;16.77;65.8
50652;BME280;61429;52.086;5.240;2022-07-05T04:30:46;102077.0;;;16.68;66.66
50652;BME280;61429;52.086;5.240;2022-07-05T04:32:33;102078.0;;;16.8;66.44
50652;BME280;61429;52.086;5.240;2022-07-05T04:34:21;102075.0;;;16.84;66.64
50652;BME280;61429;52.086;5.240;2022-07-05T04:36:07;102081.0;;;16.84;66.8
50652;BME280;61429;52.086;5.240;2022-07-05T04:39:39;102082.0;;;16.84;67.02
50652;BME280;61429;52.086;5.240;2022-07-05T04:41:26;102083.0;;;16.84;67.27
50652;BME280;61429;52.086;5.240;2022-07-05T04:43:13;102083.0;;;17.0;66.78
50652;BME280;61429;52.086;5.240;2022-07-05T04:45:00;102082.0;;;17.06;66.75
50652;BME280;61429;52.086;5.240;2022-07-05T04:46:47;102084.0;;;16.95;67.2
50652;BME280;61429;52.086;5.240;2022-07-05T04:50:19;102080.0;;;17.02;67.25
50652;BME280;61429;52.086;5.240;2022-07-05T04:52:06;102080.0;;;16.98;67.66
50652;BME280;61429;52.086;5.240;2022-07-05T04:53:52;102082.0;;;17.03;67.66
50652;BME280;61429;52.086;5.240;2022-07-05T04:55:39;102082.0;;;17.09;67.44
50652;BME280;61429;52.086;5.240;2022-07-05T04:57:25;102083.0;;;17.02;67.56
50652;BME280;61429;52.086;5.240;2022-07-05T04:59:13;102088.0;;;17.07;67.66
50652;BME280;61429;52.086;5.240;2022-07-05T05:02:47;102080.0;;;17.43;66.97
50652;BME280;61429;52.086;5.240;2022-07-05T05:04:34;102084.0;;;17.55;66.22
50652;BME280;61429;52.086;5.240;2022-07-05T05:06:21;102083.0;;;17.68;66.13
50652;BME280;61429;52.086;5.240;2022-07-05T05:08:07;102080.0;;;17.81;65.61
50652;BME280;61429;52.086;5.240;2022-07-05T05:09:53;102084.0;;;17.71;66.02
50652;BME280;61429;52.086;5.240;2022-07-05T05:11:40;102092.0;;;17.63;66.33
50652;BME280;61429;52.086;5.240;2022-07-05T05:15:14;102089.0;;;17.71;66.31
50652;BME280;61429;52.086;5.240;2022-07-05T05:17:00;102086.0;;;18.14;64.98
50652;BME280;61429;52.086;5.240;2022-07-05T05:18:47;102087.0;;;18.64;63.48
50652;BME280;61429;52.086;5.240;2022-07-05T05:20:33;102084.0;;;18.77;62.65
50652;BME280;61429;52.086;5.240;2022-07-05T05:22:19;102086.0;;;18.68;62.96
50652;BME280;61429;52.086;5.240;2022-07-05T05:25:52;102080.0;;;19.02;62.17
50652;BME280;61429;52.086;5.240;2022-07-05T05:27:41;102075.0;;;19.25;61.6
50652;BME280;61429;52.086;5.240;2022-07-05T05:29:28;102077.0;;;19.13;61.57
50652;BME280;61429;52.086;5.240;2022-07-05T05:31:15;102084.0;;;18.84;62.75
50652;BME280;61429;52.086;5.240;2022-07-05T05:33:01;102083.0;;;18.5;64.12
50652;BME280;61429;52.086;5.240;2022-07-05T05:34:47;102085.0;;;18.5;64.63
50652;BME280;61429;52.086;5.240;2022-07-05T05:38:21;102088.0;;;18.62;64.37
50652;BME280;61429;52.086;5.240;2022-07-05T05:40:09;102095.0;;;18.5;64.8
50652;BME280;61429;52.086;5.240;2022-07-05T05:41:56;102100.0;;;18.45;65.35
50652;BME280;61429;52.086;5.240;2022-07-05T05:43:43;102098.0;;;18.36;65.77
50652;BME280;61429;52.086;5.240;2022-07-05T05:45:29;102102.0;;;18.36;65.98
50652;BME280;61429;52.086;5.240;2022-07-05T05:47:16;102102.0;;;18.41;65.78
50652;BME280;61429;52.086;5.240;2022-07-05T05:50:49;102105.0;;;18.36;66.19
50652;BME280;61429;52.086;5.240;2022-07-05T05:52:37;102107.0;;;18.34;66.33
50652;BME280;61429;52.086;5.240;2022-07-05T05:54:23;102105.0;;;18.45;66.08
50652;BME280;61429;52.086;5.240;2022-07-05T05:56:10;102106.0;;;18.39;66.44
50652;BME280;61429;52.086;5.240;2022-07-05T05:58:10;102106.0;;;18.5;66.5
50652;BME280;61429;52.086;5.240;2022-07-05T05:59:57;102105.0;;;18.56;66.42
50652;BME280;61429;52.086;5.240;2022-07-05T06:03:29;102108.0;;;18.62;66.09
50652;BME280;61429;52.086;5.240;2022-07-05T06:05:16;102109.0;;;18.59;65.97
50652;BME280;61429;52.086;5.240;2022-07-05T06:07:03;102108.0;;;18.63;65.94
50652;BME280;61429;52.086;5.240;2022-07-05T06:08:49;102111.0;;;18.54;66.66
50652;BME280;61429;52.086;5.240;2022-07-05T06:10:36;102111.0;;;18.59;66.69
50652;BME280;61429;52.086;5.240;2022-07-05T06:12:23;102113.0;;;18.57;66.72
50652;BME280;61429;52.086;5.240;2022-07-05T06:15:55;102115.0;;;18.66;66.62
50652;BME280;61429;52.086;5.240;2022-07-05T06:17:43;102118.0;;;18.75;66.27
50652;BME280;61429;52.086;5.240;2022-07-05T06:19:28;102127.0;;;18.8;66.12
50652;BME280;61429;52.086;5.240;2022-07-05T06:21:15;102128.0;;;18.95;65.66
50652;BME280;61429;52.086;5.240;2022-07-05T06:23:02;102130.0;;;19.09;65.41
50652;BME280;61429;52.086;5.240;2022-07-05T06:26:36;102124.0;;;19.13;65.41
50652;BME280;61429;52.086;5.240;2022-07-05T06:28:22;102125.0;;;19.34;64.88
50652;BME280;61429;52.086;5.240;2022-07-05T06:30:13;102130.0;;;19.38;64.36
50652;BME280;61429;52.086;5.240;2022-07-05T06:32:01;102130.0;;;19.45;63.81
50652;BME280;61429;52.086;5.240;2022-07-05T06:33:47;102127.0;;;19.63;63.43
50652;BME280;61429;52.086;5.240;2022-07-05T06:35:33;102134.0;;;19.61;63.38
50652;BME280;61429;52.086;5.240;2022-07-05T06:39:06;102131.0;;;19.78;62.95
50652;BME280;61429;52.086;5.240;2022-07-05T06:40:53;102130.0;;;19.82;63.16
50652;BME280;61429;52.086;5.240;2022-07-05T06:42:40;102134.0;;;19.93;62.7
50652;BME280;61429;52.086;5.240;2022-07-05T06:44:27;102136.0;;;19.95;62.55
50652;BME280;61429;52.086;5.240;2022-07-05T06:46:13;102137.0;;;20.0;62.52
50652;BME280;61429;52.086;5.240;2022-07-05T06:48:00;102134.0;;;20.09;61.82
50652;BME280;61429;52.086;5.240;2022-07-05T06:51:34;102137.0;;;20.0;62.33
50652;BME280;61429;52.086;5.240;2022-07-05T06:53:21;102141.0;;;20.09;62.14
50652;BME280;61429;52.086;5.240;2022-07-05T06:55:07;102140.0;;;20.18;61.78
50652;BME280;61429;52.086;5.240;2022-07-05T06:56:55;102143.0;;;20.2;60.58
50652;BME280;61429;52.086;5.240;2022-07-05T06:58:41;102142.0;;;20.18;61.1
50652;BME280;61429;52.086;5.240;2022-07-05T07:00:28;102142.0;;;20.3;60.18
50652;BME280;61429;52.086;5.240;2022-07-05T07:04:02;102143.0;;;20.41;59.54
50652;BME280;61429;52.086;5.240;2022-07-05T07:05:48;102148.0;;;20.45;59.14
50652;BME280;61429;52.086;5.240;2022-07-05T07:10:37;102143.0;;;20.48;57.89
50652;BME280;61429;52.086;5.240;2022-07-05T07:12:24;102145.0;;;20.6;57.54
50652;BME280;61429;52.086;5.240;2022-07-05T07:14:11;102144.0;;;20.57;57.36
50652;BME280;61429;52.086;5.240;2022-07-05T07:15:58;102141.0;;;20.73;56.81
50652;BME280;61429;52.086;5.240;2022-07-05T07:17:44;102145.0;;;20.67;56.89
50652;BME280;61429;52.086;5.240;2022-07-05T07:19:30;102148.0;;;20.84;56.78
50652;BME280;61429;52.086;5.240;2022-07-05T07:23:03;102148.0;;;20.89;55.55
50652;BME280;61429;52.086;5.240;2022-07-05T07:24:48;102141.0;;;20.81;54.79
50652;BME280;61429;52.086;5.240;2022-07-05T07:27:03;102144.0;;;20.81;54.85
50652;BME280;61429;52.086;5.240;2022-07-05T07:28:51;102145.0;;;20.8;54.45
50652;BME280;61429;52.086;5.240;2022-07-05T07:30:38;102148.0;;;20.93;54.14
50652;BME280;61429;52.086;5.240;2022-07-05T07:32:25;102149.0;;;21.0;53.5
50652;BME280;61429;52.086;5.240;2022-07-05T07:34:13;102150.0;;;20.88;53.24
50652;BME280;61429;52.086;5.240;2022-07-05T07:35:59;102152.0;;;20.84;53.32
50652;BME280;61429;52.086;5.240;2022-07-05T07:39:33;102153.0;;;20.81;53.76
50652;BME280;61429;52.086;5.240;2022-07-05T07:41:19;102155.0;;;20.93;53.47
50652;BME280;61429;52.086;5.240;2022-07-05T07:43:05;102159.0;;;21.0;51.91
50652;BME280;61429;52.086;5.240;2022-07-05T07:44:51;102156.0;;;21.0;52.08
50652;BME280;61429;52.086;5.240;2022-07-05T07:46:39;102157.0;;;21.01;51.96
50652;BME280;61429;52.086;5.240;2022-07-05T07:50:15;102156.0;;;21.1;50.84
50652;BME280;61429;52.086;5.240;2022-07-05T07:52:01;102160.0;;;21.16;50.33
50652;BME280;61429;52.086;5.240;2022-07-05T07:53:47;102159.0;;;21.13;50.05
50652;BME280;61429;52.086;5.240;2022-07-05T07:55:34;102162.0;;;21.34;48.96
50652;BME280;61429;52.086;5.240;2022-07-05T07:57:20;102164.0;;;21.34;48.66
50652;BME280;61429;52.086;5.240;2022-07-05T07:59:08;102167.0;;;21.17;48.71
50652;BME280;61429;52.086;5.240;2022-07-05T08:02:41;102170.0;;;21.38;48.88
50652;BME280;61429;52.086;5.240;2022-07-05T08:04:27;102167.0;;;21.44;48.58
50652;BME280;61429;52.086;5.240;2022-07-05T08:06:14;102166.0;;;21.5;47.54
50652;BME280;61429;52.086;5.240;2022-07-05T08:08:01;102166.0;;;21.6;47.3
50652;BME280;61429;52.086;5.240;2022-07-05T08:09:49;102162.0;;;21.59;46.31
50652;BME280;61429;52.086;5.240;2022-07-05T08:11:36;102164.0;;;21.6;46.77
50652;BME280;61429;52.086;5.240;2022-07-05T08:15:10;102167.0;;;21.62;46.68
50652;BME280;61429;52.086;5.240;2022-07-05T08:16:57;102171.0;;;21.65;46.76
50652;BME280;61429;52.086;5.240;2022-07-05T08:21:48;102169.0;;;21.93;46.49
50652;BME280;61429;52.086;5.240;2022-07-05T08:23:35;102168.0;;;21.95;46.02
50652;BME280;61429;52.086;5.240;2022-07-05T08:25:22;102168.0;;;21.96;46.07
50652;BME280;61429;52.086;5.240;2022-07-05T08:27:08;102169.0;;;21.94;47.11
50652;BME280;61429;52.086;5.240;2022-07-05T08:28:55;102171.0;;;21.92;46.94
50652;BME280;61429;52.086;5.240;2022-07-05T08:30:42;102172.0;;;21.79;46.1
50652;BME280;61429;52.086;5.240;2022-07-05T08:32:28;102172.0;;;21.86;46.77
50652;BME280;61429;52.086;5.240;2022-07-05T08:36:06;102169.0;;;21.92;46.94
50652;BME280;61429;52.086;5.240;2022-07-05T08:37:53;102171.0;;;21.45;47.95
50652;BME280;61429;52.086;5.240;2022-07-05T08:39:39;102169.0;;;21.52;49.27
50652;BME280;61429;52.086;5.240;2022-07-05T08:41:25;102165.0;;;21.69;49.42
50652;BME280;61429;52.086;5.240;2022-07-05T08:43:13;102161.0;;;21.82;49.53
50652;BME280;61429;52.086;5.240;2022-07-05T08:46:51;102165.0;;;21.98;49.58
50652;BME280;61429;52.086;5.240;2022-07-05T08:48:43;102161.0;;;21.96;48.74
50652;BME280;61429;52.086;5.240;2022-07-05T08:50:33;102168.0;;;21.19;50.27
50652;BME280;61429;52.086;5.240;2022-07-05T08:52:22;102176.0;;;21.44;49.52
50652;BME280;61429;52.086;5.240;2022-07-05T08:54:10;102167.0;;;21.61;48.44
50652;BME280;61429;52.086;5.240;2022-07-05T08:55:58;102165.0;;;21.67;48.08
50652;BME280;61429;52.086;5.240;2022-07-05T08:57:45;102165.0;;;21.44;47.47
50652;BME280;61429;52.086;5.240;2022-07-05T09:01:19;102164.0;;;21.73;46.75
50652;BME280;61429;52.086;5.240;2022-07-05T09:03:07;102161.0;;;21.9;47.18
50652;BME280;61429;52.086;5.240;2022-07-05T09:04:55;102162.0;;;21.59;47.57
50652;BME280;61429;52.086;5.240;2022-07-05T09:06:46;102166.0;;;21.39;48.24
50652;BME280;61429;52.086;5.240;2022-07-05T09:08:35;102164.0;;;21.75;47.41
50652;BME280;61429;52.086;5.240;2022-07-05T09:10:25;102167.0;;;21.78;46.57
50652;BME280;61429;52.086;5.240;2022-07-05T09:12:13;102172.0;;;21.09;47.01
50652;BME280;61429;52.086;5.240;2022-07-05T09:15:51;102170.0;;;21.4;46.53
50652;BME280;61429;52.086;5.240;2022-07-05T09:17:42;102171.0;;;21.71;46.3
50652;BME280;61429;52.086;5.240;2022-07-05T09:19:30;102173.0;;;21.04;47.17
50652;BME280;61429;52.086;5.240;2022-07-05T09:21:18;102178.0;;;21.38;47.0
50652;BME280;61429;52.086;5.240;2022-07-05T09:23:06;102177.0;;;21.32;46.89
50652;BME280;61429;52.086;5.240;2022-07-05T09:24:52;102182.0;;;21.33;47.05
50652;BME280;61429;52.086;5.240;2022-07-05T09:28:28;102180.0;;;21.39;46.94
50652;BME280;61429;52.086;5.240;2022-07-05T09:30:24;102174.0;;;21.61;46.71
50652;BME280;61429;52.086;5.240;2022-07-05T09:32:23;102175.0;;;21.94;46.18
50652;BME280;61429;52.086;5.240;2022-07-05T09:34:11;102174.0;;;22.04;45.98
50652;BME280;61429;52.086;5.240;2022-07-05T09:35:57;102173.0;;;22.27;45.75
50652;BME280;61429;52.086;5.240;2022-07-05T09:37:44;102169.0;;;22.24;46.22
50652;BME280;61429;52.086;5.240;2022-07-05T09:39:38;102173.0;;;22.38;45.64
50652;BME280;61429;52.086;5.240;2022-07-05T09:43:13;102180.0;;;22.11;44.67
50652;BME280;61429;52.086;5.240;2022-07-05T09:45:00;102176.0;;;22.14;45.18
50652;BME280;61429;52.086;5.240;2022-07-05T09:46:47;102180.0;;;22.19;44.98
50652;BME280;61429;52.086;5.240;2022-07-05T09:48:34;102176.0;;;22.19;44.06
50652;BME280;61429;52.086;5.240;2022-07-05T09:50:37;102171.0;;;22.34;43.81
50652;BME280;61429;52.086;5.240;2022-07-05T09:52:28;102180.0;;;22.08;44.05
50652;BME280;61429;52.086;5.240;2022-07-05T09:54:14;102183.0;;;22.09;43.76
50652;BME280;61429;52.086;5.240;2022-07-05T09:57:50;102186.0;;;22.24;43.89
50652;BME280;61429;52.086;5.240;2022-07-05T09:59:37;102182.0;;;22.29;43.95
50652;BME280;61429;52.086;5.240;2022-07-05T10:01:25;102183.0;;;21.8;44.96
50652;BME280;61429;52.086;5.240;2022-07-05T10:03:11;102190.0;;;21.64;45.03
50652;BME280;61429;52.086;5.240;2022-07-05T10:05:08;102188.0;;;21.19;46.11
50652;BME280;61429;52.086;5.240;2022-07-05T10:06:56;102185.0;;;21.18;46.05
50652;BME280;61429;52.086;5.240;2022-07-05T10:08:42;102187.0;;;21.45;45.97
50652;BME280;61429;52.086;5.240;2022-07-05T10:12:19;102186.0;;;21.58;44.46
50652;BME280;61429;52.086;5.240;2022-07-05T10:14:10;102180.0;;;21.87;44.33
50652;BME280;61429;52.086;5.240;2022-07-05T10:16:00;102180.0;;;22.22;43.73
50652;BME280;61429;52.086;5.240;2022-07-05T10:17:51;102182.0;;;22.26;41.99
50652;BME280;61429;52.086;5.240;2022-07-05T10:19:50;102178.0;;;21.8;43.49
50652;BME280;61429;52.086;5.240;2022-07-05T10:21:39;102178.0;;;22.21;44.39
50652;BME280;61429;52.086;5.240;2022-07-05T10:23:26;102177.0;;;22.33;42.54
50652;BME280;61429;52.086;5.240;2022-07-05T10:27:06;102178.0;;;21.98;43.69
50652;BME280;61429;52.086;5.240;2022-07-05T10:28:53;102184.0;;;21.67;45.62
50652;BME280;61429;52.086;5.240;2022-07-05T10:30:40;102188.0;;;21.38;46.71
50652;BME280;61429;52.086;5.240;2022-07-05T10:32:28;102186.0;;;21.15;47.34
50652;BME280;61429;52.086;5.240;2022-07-05T10:34:16;102190.0;;;21.0;47.76
50652;BME280;61429;52.086;5.240;2022-07-05T10:36:03;102190.0;;;20.58;48.28
50652;BME280;61429;52.086;5.240;2022-07-05T10:39:40;102184.0;;;20.85;47.97
50652;BME280;61429;52.086;5.240;2022-07-05T10:41:27;102184.0;;;20.94;48.1
50652;BME280;61429;52.086;5.240;2022-07-05T10:43:15;102183.0;;;20.81;45.54
50652;BME280;61429;52.086;5.240;2022-07-05T10:45:21;102180.0;;;20.68;46.28
50652;BME280;61429;52.086;5.240;2022-07-05T10:47:11;102185.0;;;21.3;45.36
50652;BME280;61429;52.086;5.240;2022-07-05T10:49:10;102181.0;;;21.55;44.81
50652;BME280;61429;52.086;5.240;2022-07-05T10:50:58;102183.0;;;21.52;45.32
50652;BME280;61429;52.086;5.240;2022-07-05T10:53:01;102182.0;;;20.95;46.29
50652;BME280;61429;52.086;5.240;2022-07-05T10:55:18;102186.0;;;21.27;46.3
50652;BME280;61429;52.086;5.240;2022-07-05T10:57:20;102190.0;;;21.38;45.56
50652;BME280;61429;52.086;5.240;2022-07-05T10:59:11;102194.0;;;20.75;46.25
50652;BME280;61429;52.086;5.240;2022-07-05T11:01:33;102185.0;;;21.25;45.84
50652;BME280;61429;52.086;5.240;2022-07-05T11:03:38;102190.0;;;21.02;46.95
50652;BME280;61429;52.086;5.240;2022-07-05T11:05:26;102190.0;;;21.15;47.56
50652;BME280;61429;52.086;5.240;2022-07-05T11:09:16;102193.0;;;20.96;47.51
50652;BME280;61429;52.086;5.240;2022-07-05T11:11:11;102193.0;;;20.96;47.36
50652;BME280;61429;52.086;5.240;2022-07-05T11:12:58;102194.0;;;21.16;47.34